Time;durP1;ratioP1;P1;durP2;ratioP2;P2;SDS_P1;SDS_P2;PMS_P1;PMS_P2;Temp;Humidity;BMP_temperature;BMP_pressure;BME280_temperature;BME280_humidity;BME280_pressure;Samples;Min_cycle;Max_cycle;Signal;HPM_P1;HPM_P2
2023/09/20 00:00:52;;;;;;;12.40;3.30;;;;;;;20.23;54.72;98752.48;67860;1276;1016479;-63
2023/09/20 00:04:07;;;;;;;12.50;3.50;;;;;;;20.01;54.96;98755.87;67886;1276;1016350;-64
2023/09/20 00:07:10;;;;;;;9.40;3.00;;;;;;;19.90;55.05;98760.24;67875;1276;1016200;-64
2023/09/20 00:10:14;;;;;;;12.60;3.40;;;;;;;19.85;55.08;98758.92;67895;1276;1018966;-63
2023/09/20 00:13:16;;;;;;;13.50;3.60;;;;;;;19.90;54.97;98760.88;67876;1276;1018052;-64
2023/09/20 00:16:19;;;;;;;9.40;3.30;;;;;;;19.86;55.18;98761.52;67850;1276;1016494;-63
2023/09/20 00:19:21;;;;;;;13.30;3.70;;;;;;;19.96;55.13;98756.67;67905;1276;1019488;-64
2023/09/20 00:22:24;;;;;;;9.30;3.50;;;;;;;19.90;55.02;98757.20;67897;1276;1016314;-65
2023/09/20 00:25:27;;;;;;;6.10;2.50;;;;;;;19.90;55.12;98770.17;67872;1276;1016345;-63
2023/09/20 00:28:29;;;;;;;9.20;3.20;;;;;;;19.94;54.43;98760.71;67854;1276;1016087;-63
2023/09/20 00:31:32;;;;;;;10.70;3.40;;;;;;;19.99;54.31;98763.77;67882;1276;1016456;-64
2023/09/20 00:34:34;;;;;;;9.10;2.80;;;;;;;19.82;54.42;98769.49;67855;1276;1016441;-65
2023/09/20 00:37:37;;;;;;;11.10;3.20;;;;;;;19.60;54.55;98769.05;67846;1276;1016341;-64
2023/09/20 00:40:39;;;;;;;11.90;3.30;;;;;;;19.52;54.77;98766.98;67859;1276;1016447;-63
2023/09/20 00:43:42;;;;;;;12.40;3.50;;;;;;;19.53;54.67;98770.09;67883;1276;1016415;-63
2023/09/20 00:46:46;;;;;;;10.50;3.60;;;;;;;19.42;55.05;98770.32;67872;1276;1016162;-63
2023/09/20 00:49:49;;;;;;;12.50;3.60;;;;;;;19.34;55.19;98771.96;67858;1276;1016631;-63
2023/09/20 00:52:54;;;;;;;10.70;3.80;;;;;;;19.10;56.00;98776.58;67864;1276;1016753;-66
2023/09/20 00:55:57;;;;;;;12.70;3.50;;;;;;;19.15;56.00;98773.24;67808;1276;1016604;-64
2023/09/20 00:59:06;;;;;;;10.80;3.30;;;;;;;19.28;55.72;98770.72;67875;1276;1016274;-71
2023/09/20 01:02:08;;;;;;;13.50;3.50;;;;;;;19.34;55.27;98765.92;67893;1276;1016476;-67
2023/09/20 01:05:12;;;;;;;14.40;3.70;;;;;;;19.31;55.41;98766.52;67837;1276;1016416;-69
2023/09/20 01:08:14;;;;;;;14.50;3.90;;;;;;;19.24;55.57;98761.54;67877;1276;1016604;-68
2023/09/20 01:11:17;;;;;;;11.20;3.60;;;;;;;19.25;55.30;98765.39;67846;1276;1018250;-64
2023/09/20 01:14:21;;;;;;;13.20;3.80;;;;;;;19.24;55.25;98768.14;67882;1276;1016901;-66
2023/09/20 01:17:24;;;;;;;9.10;3.30;;;;;;;19.27;55.00;98762.00;67852;1276;1016398;-64
2023/09/20 01:20:26;;;;;;;17.40;3.70;;;;;;;19.28;54.91;98765.66;67888;1276;1016812;-64
2023/09/20 01:23:28;;;;;;;;;;;;;;;19.20;55.29;98760.56;67900;1276;1016954;-65
2023/09/20 01:26:32;;;;;;;13.30;3.50;;;;;;;19.14;55.23;98763.73;67860;1276;1016380;-64
2023/09/20 01:29:35;;;;;;;12.80;4.00;;;;;;;18.95;55.52;98765.64;67886;1276;1016158;-65
2023/09/20 01:32:38;;;;;;;9.80;3.30;;;;;;;19.07;55.08;98769.54;67886;1276;1016351;-63
2023/09/20 01:35:40;;;;;;;10.60;3.30;;;;;;;19.25;54.75;98772.59;67882;1276;1017119;-69
2023/09/20 01:38:43;;;;;;;12.30;3.50;;;;;;;19.19;54.20;98773.34;67889;1276;1016311;-65
2023/09/20 01:41:46;;;;;;;17.00;4.20;;;;;;;19.01;54.49;98773.55;67867;1276;1016408;-65
2023/09/20 01:44:49;;;;;;;13.60;4.00;;;;;;;18.89;54.94;98780.11;67881;1276;1016228;-65
2023/09/20 01:47:51;;;;;;;14.70;4.30;;;;;;;18.75;55.10;98775.44;67881;1276;1016053;-65
2023/09/20 01:50:54;;;;;;;15.30;3.50;;;;;;;18.75;55.13;98781.34;67872;1276;1016309;-64
2023/09/20 01:53:56;;;;;;;15.10;4.00;;;;;;;18.74;55.03;98780.21;67851;1276;1016362;-64
2023/09/20 01:57:00;;;;;;;16.40;4.10;;;;;;;18.74;54.92;98783.89;67900;1276;1016406;-65
2023/09/20 02:00:13;;;;;;;14.30;3.80;;;;;;;18.67;54.93;98781.20;67889;1276;1016103;-65
2023/09/20 02:03:16;;;;;;;13.20;3.80;;;;;;;18.59;55.02;98777.70;67870;1276;1016622;-64
2023/09/20 02:06:21;;;;;;;15.20;4.00;;;;;;;18.62;54.99;98779.50;67812;1276;1016193;-64
2023/09/20 02:09:24;;;;;;;15.70;3.70;;;;;;;18.57;55.12;98778.96;67846;1276;1016508;-64
2023/09/20 02:12:26;;;;;;;16.20;3.90;;;;;;;18.60;55.04;98777.27;67887;1276;1016237;-64
2023/09/20 02:15:31;;;;;;;14.10;3.80;;;;;;;18.58;55.02;98781.31;59746;1276;2015901;-64
2023/09/20 02:18:33;;;;;;;16.70;4.10;;;;;;;18.53;55.06;98783.89;49720;1276;2016478;-65
2023/09/20 02:21:36;;;;;;;12.60;3.80;;;;;;;18.51;54.96;98783.92;51394;1276;2016302;-65
2023/09/20 02:24:40;;;;;;;12.50;3.80;;;;;;;18.51;55.03;98786.77;51387;1276;2016429;-65
2023/09/20 02:27:42;;;;;;;15.90;4.00;;;;;;;18.45;55.03;98790.55;49874;1276;2015639;-64
2023/09/20 02:30:45;;;;;;;15.40;3.90;;;;;;;18.51;54.83;98786.91;51392;1276;2016084;-64
2023/09/20 02:33:47;;;;;;;14.40;3.90;;;;;;;18.37;55.08;98787.20;50649;1276;2016450;-64
2023/09/20 02:36:50;;;;;;;15.20;4.10;;;;;;;18.34;55.12;98789.92;49770;1276;2016040;-64
2023/09/20 02:39:53;;;;;;;13.10;4.00;;;;;;;18.29;55.47;98788.84;49149;1276;2018409;-64
2023/09/20 02:42:57;;;;;;;16.70;4.00;;;;;;;18.24;55.35;98786.99;52169;1276;2015942;-64
2023/09/20 02:46:05;;;;;;;10.30;3.70;;;;;;;18.22;55.24;98786.33;52907;1276;2016223;-63
2023/09/20 02:49:08;;;;;;;12.60;3.80;;;;;;;18.23;55.12;98785.10;50673;1276;2016226;-64
2023/09/20 02:52:10;;;;;;;13.90;4.00;;;;;;;18.23;54.93;98784.27;51398;1276;2015488;-65
2023/09/20 02:55:15;;;;;;;16.30;4.10;;;;;;;17.93;55.84;98781.70;50642;1276;2016141;-65
2023/09/20 02:58:18;;;;;;;15.30;4.50;;;;;;;17.88;55.72;98786.05;51269;1276;2016210;-65
2023/09/20 03:01:21;;;;;;;16.00;4.30;;;;;;;17.85;56.04;98783.27;51275;1276;2015611;-65
2023/09/20 03:04:23;;;;;;;13.30;3.80;;;;;;;17.82;56.15;98780.13;51992;1276;2015679;-65
2023/09/20 03:07:27;;;;;;;18.20;4.80;;;;;;;17.84;55.89;98783.90;51406;1276;2015873;-63
2023/09/20 03:10:29;;;;;;;19.60;4.90;;;;;;;17.85;55.89;98783.46;51282;1276;2016048;-66
2023/09/20 03:13:32;;;;;;;19.20;6.00;;;;;;;17.84;56.30;98786.06;49774;1276;2016405;-64
2023/09/20 03:16:35;;;;;;;17.00;5.20;;;;;;;17.74;56.32;98784.61;50609;1276;2016017;-64
2023/09/20 03:19:39;;;;;;;17.90;5.60;;;;;;;17.68;56.18;98782.15;50657;1276;2016319;-65
2023/09/20 03:22:42;;;;;;;16.60;4.70;;;;;;;17.65;55.84;98782.08;49869;1276;2016647;-70
2023/09/20 03:25:44;;;;;;;15.60;4.70;;;;;;;17.71;55.53;98779.59;54429;1276;2015579;-64
2023/09/20 03:28:48;;;;;;;19.30;4.60;;;;;;;17.59;55.71;98781.23;67860;1276;1016481;-69
2023/09/20 03:31:51;;;;;;;16.10;4.10;;;;;;;17.73;55.43;98779.81;67843;1276;1016046;-66
2023/09/20 03:34:54;;;;;;;19.80;4.60;;;;;;;17.67;55.40;98777.17;67854;1276;1018501;-63
2023/09/20 03:37:57;;;;;;;15.10;4.10;;;;;;;17.66;55.53;98778.80;67891;1276;1016191;-65
2023/09/20 03:40:59;;;;;;;18.40;4.30;;;;;;;17.70;55.40;98777.24;67886;1276;1016094;-63
2023/09/20 03:44:02;;;;;;;17.20;4.60;;;;;;;17.69;55.47;98775.40;67827;1276;1015898;-65
2023/09/20 03:47:05;;;;;;;15.10;4.40;;;;;;;17.74;55.28;98780.23;67846;1276;1017012;-65
2023/09/20 03:50:08;;;;;;;18.20;4.70;;;;;;;17.67;55.12;98777.30;67898;1276;1016120;-63
2023/09/20 03:53:11;;;;;;;21.30;5.50;;;;;;;17.64;55.19;98778.47;67891;1276;1016413;-64
2023/09/20 03:56:14;;;;;;;16.10;4.60;;;;;;;17.49;55.26;98784.42;67885;1276;1016817;-64
2023/09/20 03:59:17;;;;;;;20.70;5.50;;;;;;;17.39;55.45;98788.20;67845;1276;1016489;-63
2023/09/20 04:02:20;;;;;;;16.50;4.30;;;;;;;17.45;55.49;98790.80;67885;1276;1016255;-63
2023/09/20 04:05:22;;;;;;;16.10;4.00;;;;;;;17.33;55.76;98793.49;67877;1276;1016179;-63
2023/09/20 04:08:26;;;;;;;15.70;4.20;;;;;;;17.31;55.69;98788.33;67858;1276;1016288;-63
2023/09/20 04:11:32;;;;;;;19.30;5.30;;;;;;;17.33;55.51;98791.69;67904;1275;1017959;-63
2023/09/20 04:14:34;;;;;;;18.60;5.40;;;;;;;17.31;55.56;98789.56;67841;1276;1016389;-64
2023/09/20 04:17:38;;;;;;;15.10;4.40;;;;;;;17.22;55.53;98792.64;67851;1276;1016435;-63
2023/09/20 04:20:40;;;;;;;16.80;5.00;;;;;;;17.01;55.77;98794.85;67859;1276;1016557;-63
2023/09/20 04:23:43;;;;;;;15.80;5.00;;;;;;;16.99;56.09;98798.42;67845;1276;1016297;-63
2023/09/20 04:26:45;;;;;;;19.60;5.30;;;;;;;16.96;56.04;98797.10;67898;1276;1016367;-63
2023/09/20 04:29:47;;;;;;;17.80;5.20;;;;;;;16.93;56.18;98796.31;67903;1276;1016471;-64
2023/09/20 04:32:51;;;;;;;15.00;4.70;;;;;;;16.98;56.28;98799.02;67882;1276;1016414;-64
2023/09/20 04:35:57;;;;;;;18.30;4.60;;;;;;;17.01;56.12;98801.27;67909;1276;1016661;-64
2023/09/20 04:38:59;;;;;;;13.60;4.50;;;;;;;17.04;56.24;98798.32;67915;1276;1017694;-64
2023/09/20 04:42:02;;;;;;;16.90;5.00;;;;;;;17.08;56.37;98799.95;67890;1276;1016004;-64
2023/09/20 04:45:06;;;;;;;19.60;5.10;;;;;;;17.12;56.42;98806.46;67852;1276;1016234;-64
2023/09/20 04:48:09;;;;;;;20.10;5.30;;;;;;;17.13;56.20;98808.52;67789;1276;1016064;-65
2023/09/20 04:51:11;;;;;;;18.80;5.00;;;;;;;17.11;56.26;98809.13;67888;1276;1016740;-64
2023/09/20 04:54:14;;;;;;;17.10;4.40;;;;;;;17.24;56.06;98812.98;67908;1276;1016221;-64
2023/09/20 04:57:16;;;;;;;;;;;;;;;17.39;55.57;98810.93;67858;1276;1015892;-64
2023/09/20 05:00:26;;;;;;;15.60;4.70;;;;;;;17.38;55.83;98806.63;67906;1276;1016210;-64
2023/09/20 05:03:28;;;;;;;20.60;5.00;;;;;;;17.49;56.05;98816.05;67902;1276;1016297;-64
2023/09/20 05:06:31;;;;;;;23.00;6.20;;;;;;;17.66;55.75;98815.08;67840;1276;1016445;-65
2023/09/20 05:09:34;;;;;;;21.20;6.50;;;;;;;17.84;55.71;98812.56;67903;1276;1016423;-63
2023/09/20 05:12:36;;;;;;;25.40;7.90;;;;;;;17.96;55.95;98813.84;67884;1276;1016292;-68
2023/09/20 05:15:39;;;;;;;23.30;7.40;;;;;;;17.99;56.62;98813.70;67855;1276;1016149;-64
2023/09/20 05:18:41;;;;;;;21.10;6.30;;;;;;;18.11;56.55;98815.41;67880;1276;1016561;-64
2023/09/20 05:21:45;;;;;;;;;;;;;;;18.18;56.09;98821.52;67924;1276;1017170;-65
2023/09/20 05:24:47;;;;;;;19.00;5.80;;;;;;;18.16;55.90;98820.27;67872;1276;1016280;-66
2023/09/20 05:27:51;;;;;;;22.40;6.80;;;;;;;18.28;56.35;98822.73;67894;1276;1016539;-64
2023/09/20 05:30:54;;;;;;;19.90;6.60;;;;;;;18.47;56.72;98828.08;67896;1276;1016243;-64
2023/09/20 05:33:57;;;;;;;25.50;8.20;;;;;;;18.66;56.87;98830.88;67862;1276;1017904;-64
2023/09/20 05:37:00;;;;;;;20.20;6.30;;;;;;;18.81;57.12;98834.20;67901;1276;1016213;-65
2023/09/20 05:40:03;;;;;;;26.30;7.40;;;;;;;19.05;56.77;98834.06;67899;1276;1016505;-63
2023/09/20 05:43:06;;;;;;;21.70;7.20;;;;;;;19.37;56.66;98834.73;67845;1276;1016107;-64
2023/09/20 05:46:10;;;;;;;22.40;7.30;;;;;;;19.65;56.67;98842.80;67847;1276;1016015;-68
2023/09/20 05:49:12;;;;;;;24.00;7.70;;;;;;;20.00;56.87;98838.21;67913;1276;1016348;-64
2023/09/20 05:52:15;;;;;;;24.50;8.30;;;;;;;20.32;57.37;98835.30;67883;1276;1016143;-69
2023/09/20 05:55:18;;;;;;;25.40;8.50;;;;;;;20.70;57.30;98827.42;67928;1276;1016417;-64
2023/09/20 05:58:21;;;;;;;26.40;8.20;;;;;;;21.07;57.35;98831.40;67848;1276;1016558;-64
2023/09/20 06:01:23;;;;;;;23.40;8.70;;;;;;;21.42;57.00;98830.75;67860;1276;1016489;-63
2023/09/20 06:04:26;;;;;;;22.10;8.00;;;;;;;21.70;56.83;98830.92;67889;1276;1016536;-64
2023/09/20 06:07:30;;;;;;;24.30;7.40;;;;;;;21.98;56.47;98834.25;67865;1276;1016461;-64
2023/09/20 06:10:32;;;;;;;24.90;8.10;;;;;;;22.19;56.25;98834.64;67901;1276;1016492;-65
2023/09/20 06:13:35;;;;;;;21.60;7.20;;;;;;;22.43;56.17;98838.44;67865;1276;1016363;-64
2023/09/20 06:16:37;;;;;;;20.90;7.80;;;;;;;22.73;55.77;98838.85;67861;1276;1016197;-65
2023/09/20 06:19:40;;;;;;;;;;;;;;;22.90;55.28;98840.42;67885;1276;1016489;-63
2023/09/20 06:22:42;;;;;;;23.20;7.30;;;;;;;22.96;54.62;98841.67;67899;1276;1016497;-63
2023/09/20 06:25:46;;;;;;;23.70;7.30;;;;;;;23.20;54.92;98845.55;67915;1276;1016376;-63
2023/09/20 06:28:49;;;;;;;22.20;6.50;;;;;;;23.53;54.38;98853.29;67874;1276;1016227;-65
2023/09/20 06:31:51;;;;;;;20.90;6.50;;;;;;;23.49;53.42;98856.39;67853;1276;1016488;-65
2023/09/20 06:34:53;;;;;;;25.00;7.20;;;;;;;23.44;53.88;98854.48;67872;1276;1016699;-65
2023/09/20 06:37:58;;;;;;;;;;;;;;;23.67;53.99;98855.94;67919;1276;1016429;-64
2023/09/20 06:41:01;;;;;;;24.50;6.50;;;;;;;23.80;53.67;98854.63;67869;1276;1016482;-64
2023/09/20 06:44:03;;;;;;;23.40;6.70;;;;;;;23.83;52.52;98862.33;67864;1276;1016636;-64
2023/09/20 06:47:06;;;;;;;19.00;5.50;;;;;;;23.94;52.72;98861.68;67917;1276;1016436;-64
2023/09/20 06:50:09;;;;;;;19.20;5.80;;;;;;;23.98;53.09;98863.98;67882;1276;1016430;-66
2023/09/20 06:53:11;;;;;;;;;;;;;;;24.31;53.16;98865.19;67878;1276;1016454;-67
2023/09/20 06:56:13;;;;;;;19.00;5.90;;;;;;;24.52;51.99;98863.92;67876;1276;1016930;-64
2023/09/20 06:59:17;;;;;;;20.70;5.20;;;;;;;24.56;51.72;98863.30;67932;1276;1015774;-66
2023/09/20 07:02:20;;;;;;;17.80;5.20;;;;;;;24.64;51.92;98862.89;67927;1276;1016198;-64
2023/09/20 07:05:24;;;;;;;;;;;;;;;24.83;51.68;98859.28;67932;1276;1019478;-65
2023/09/20 07:08:26;;;;;;;19.60;5.40;;;;;;;24.94;50.81;98863.52;67901;1276;1018674;-64
2023/09/20 07:11:29;;;;;;;;;;;;;;;24.94;50.72;98869.14;67849;1276;1016162;-65
2023/09/20 07:14:32;;;;;;;17.60;5.10;;;;;;;25.08;50.18;98869.44;67877;1276;1016832;-64
2023/09/20 07:17:35;;;;;;;21.90;4.80;;;;;;;24.96;49.51;98871.60;67928;1276;1016388;-66
2023/09/20 07:20:39;;;;;;;17.70;4.80;;;;;;;25.07;49.59;98871.41;67877;1276;1016488;-64
2023/09/20 07:23:41;;;;;;;15.50;4.50;;;;;;;25.11;50.04;98875.59;67863;1276;1016068;-67
2023/09/20 07:26:44;;;;;;;19.00;4.70;;;;;;;25.21;49.43;98877.23;67883;1276;1016020;-65
2023/09/20 07:29:46;;;;;;;18.20;4.90;;;;;;;24.98;49.21;98884.25;67915;1276;1016399;-64
2023/09/20 07:32:49;;;;;;;17.50;4.70;;;;;;;25.18;50.16;98879.58;67891;1276;1016439;-65
2023/09/20 07:35:52;;;;;;;;;;;;;;;25.46;49.71;98877.13;67902;1276;1016430;-65
2023/09/20 07:38:56;;;;;;;17.20;4.80;;;;;;;25.46;49.17;98881.48;67939;1276;1016103;-66
2023/09/20 07:41:59;;;;;;;17.40;5.00;;;;;;;25.52;49.97;98882.56;67932;1276;1016824;-69
2023/09/20 07:45:08;;;;;;;17.70;5.10;;;;;;;25.81;49.72;98886.32;67851;1276;1016139;-64
2023/09/20 07:48:12;;;;;;;16.60;4.20;;;;;;;26.28;48.94;98884.84;67879;1276;1016445;-61
2023/09/20 07:51:14;;;;;;;17.50;4.60;;;;;;;26.47;47.91;98887.11;67876;1276;1016427;-62
2023/09/20 07:54:17;;;;;;;15.30;4.00;;;;;;;26.57;47.62;98889.13;67894;1276;1016237;-63
2023/09/20 07:57:22;;;;;;;14.80;4.00;;;;;;;26.60;46.87;98890.73;67909;1276;1016110;-65
2023/09/20 08:00:26;;;;;;;15.90;4.00;;;;;;;26.70;46.61;98897.52;67875;1276;1016304;-63
2023/09/20 08:03:32;;;;;;;17.10;4.30;;;;;;;26.82;47.67;98893.95;67872;1276;1016228;-62
2023/09/20 08:06:35;;;;;;;13.50;3.70;;;;;;;27.08;46.93;98900.88;67904;1276;1016378;-67
2023/09/20 08:09:37;;;;;;;13.80;3.90;;;;;;;26.85;45.45;98903.00;67901;1276;1016407;-64
2023/09/20 08:12:40;;;;;;;18.90;4.20;;;;;;;26.53;46.06;98903.34;67910;1276;1016422;-66
2023/09/20 08:15:43;;;;;;;14.40;4.10;;;;;;;26.59;45.85;98905.13;67880;1276;1016066;-64
2023/09/20 08:19:06;;;;;;;16.90;4.30;;;;;;;26.86;45.86;98908.02;67902;1276;1016447;-64
2023/09/20 08:22:08;;;;;;;14.10;3.80;;;;;;;27.05;45.73;98902.14;67879;1276;1016466;-64
2023/09/20 09:01:51;;;;;;;11.50;3.10;;;;;;;27.30;41.16;98899.03;67887;1276;1016440;-64
2023/09/20 09:04:54;;;;;;;15.90;3.20;;;;;;;27.64;42.10;98898.73;67853;1276;1016404;-67
2023/09/20 09:07:56;;;;;;;13.60;3.10;;;;;;;27.94;41.96;98894.42;67912;1276;1016433;-68
2023/09/20 09:10:59;;;;;;;11.70;2.90;;;;;;;28.20;39.96;98897.27;67772;1276;1166314;-65
2023/09/20 09:14:02;;;;;;;12.20;2.90;;;;;;;27.92;39.09;98898.89;67875;1276;1016193;-65
2023/09/20 09:17:04;;;;;;;16.00;3.10;;;;;;;28.00;39.23;98895.19;67899;1276;1016373;-64
2023/09/20 09:20:09;;;;;;;13.70;2.90;;;;;;;28.28;39.48;98888.42;67906;1276;1016498;-66
2023/09/20 09:23:11;;;;;;;9.90;2.80;;;;;;;28.65;39.08;98887.51;67884;1276;1018544;-67
2023/09/20 09:26:13;;;;;;;10.60;2.80;;;;;;;28.94;39.48;98881.28;67880;1276;1016465;-65
2023/09/20 09:29:16;;;;;;;14.20;2.90;;;;;;;29.18;37.70;98881.13;67873;1276;1016412;-64
2023/09/20 09:32:19;;;;;;;11.00;2.70;;;;;;;28.91;37.17;98880.79;67902;1276;1015913;-64
2023/09/20 09:35:21;;;;;;;9.70;2.70;;;;;;;28.61;36.70;98882.15;67873;1276;1016902;-65
2023/09/20 09:38:24;;;;;;;11.90;2.80;;;;;;;28.50;37.37;98880.66;67913;1276;1016552;-65
2023/09/20 09:41:27;;;;;;;13.30;3.50;;;;;;;28.87;38.35;98874.56;67918;1276;1016874;-65
2023/09/20 09:44:32;;;;;;;11.10;2.60;;;;;;;29.13;36.38;98872.59;67890;1276;1016310;-64
2023/09/20 09:47:35;;;;;;;11.10;2.40;;;;;;;29.12;36.30;98874.16;67872;1276;1018774;-65
2023/09/20 09:50:40;;;;;;;12.40;3.00;;;;;;;29.09;35.63;98874.43;67840;1276;1018925;-64
2023/09/20 09:53:44;;;;;;;11.40;2.60;;;;;;;29.10;35.78;98876.01;67873;1276;1016351;-64
2023/09/20 09:56:47;;;;;;;10.50;2.90;;;;;;;29.17;35.67;98876.69;67929;1276;1016143;-64
2023/09/20 09:59:49;;;;;;;11.10;2.90;;;;;;;29.26;36.08;98871.80;67896;1276;1016356;-65
2023/09/20 10:02:52;;;;;;;12.20;3.10;;;;;;;29.23;36.47;98870.86;67909;1276;1016481;-65
2023/09/20 10:05:54;;;;;;;12.10;2.80;;;;;;;29.27;35.98;98868.50;67902;1276;1016398;-64
2023/09/20 10:08:57;;;;;;;10.70;2.90;;;;;;;29.48;35.85;98863.13;67869;1276;1016388;-64
2023/09/20 10:11:59;;;;;;;10.90;2.70;;;;;;;29.52;35.07;98869.33;67878;1276;1016443;-64
2023/09/20 10:15:02;;;;;;;12.60;2.60;;;;;;;29.21;35.41;98867.55;67914;1276;1016491;-64
2023/09/20 10:18:04;;;;;;;9.10;2.80;;;;;;;29.11;34.87;98862.09;67888;1276;1016329;-65
2023/09/20 10:21:10;;;;;;;11.30;2.50;;;;;;;29.33;35.89;98855.45;67889;1276;1017785;-67
2023/09/20 10:24:17;;;;;;;11.40;2.80;;;;;;;29.64;35.03;98854.73;67872;1276;1016228;-67
2023/09/20 10:27:19;;;;;;;12.50;2.90;;;;;;;29.71;33.94;98856.63;67852;1276;1016904;-67
2023/09/20 10:30:22;;;;;;;9.10;2.60;;;;;;;29.68;35.14;98857.65;67902;1276;1016446;-64
2023/09/20 10:33:26;;;;;;;10.60;2.90;;;;;;;29.79;35.14;98850.97;67894;1276;1016529;-67
2023/09/20 10:36:28;;;;;;;8.90;2.80;;;;;;;30.19;35.26;98850.86;67951;1276;1016335;-67
2023/09/20 10:39:31;;;;;;;11.00;2.30;;;;;;;30.38;34.63;98850.02;67887;1276;1016543;-66
2023/09/20 10:42:33;;;;;;;10.20;2.50;;;;;;;30.08;33.82;98857.36;67879;1276;1016494;-65
2023/09/20 10:45:36;;;;;;;9.90;2.50;;;;;;;29.60;33.65;98858.86;67883;1276;1016265;-65
2023/09/20 10:48:39;;;;;;;12.20;2.70;;;;;;;29.34;33.99;98853.92;67893;1276;1016461;-66
2023/09/20 10:51:41;;;;;;;9.40;2.60;;;;;;;29.42;34.90;98850.40;67900;1276;1016583;-66
2023/09/20 10:54:46;;;;;;;11.10;2.70;;;;;;;29.75;35.52;98851.80;67876;1276;1016215;-65
2023/09/20 10:57:53;;;;;;;11.30;2.80;;;;;;;30.20;35.41;98848.44;67880;1276;1016455;-65
2023/09/20 11:00:57;;;;;;;9.80;2.70;;;;;;;30.71;34.92;98847.76;67872;1276;1016422;-66
2023/09/20 11:03:59;;;;;;;8.90;2.50;;;;;;;30.67;34.51;98845.45;67914;1276;1018412;-65
2023/09/20 11:07:02;;;;;;;9.80;2.60;;;;;;;30.80;34.63;98834.54;67867;1276;1016524;-67
2023/09/20 11:10:07;;;;;;;10.40;2.80;;;;;;;31.11;35.00;98834.09;67909;1276;1018631;-65
2023/09/20 11:13:09;;;;;;;8.90;2.80;;;;;;;31.36;34.70;98837.89;67898;1276;1016545;-65
2023/09/20 11:16:13;;;;;;;14.60;3.20;;;;;;;31.72;34.55;98835.76;67877;1276;1016410;-65
2023/09/20 11:19:16;;;;;;;10.90;3.00;;;;;;;31.77;33.69;98837.14;67887;1276;1016452;-66
2023/09/20 11:22:18;;;;;;;10.80;2.50;;;;;;;31.67;34.09;98833.65;67883;1276;1016481;-65
2023/09/20 11:25:21;;;;;;;12.70;2.90;;;;;;;31.75;33.33;98837.09;67919;1276;1016674;-65
2023/09/20 11:28:24;;;;;;;11.90;2.60;;;;;;;31.62;32.53;98829.23;67896;1276;1016130;-65
2023/09/20 11:31:28;;;;;;;10.60;2.80;;;;;;;31.50;33.40;98828.23;67891;1276;1016339;-65
2023/09/20 11:34:31;;;;;;;11.90;2.90;;;;;;;31.65;33.51;98824.02;67937;1276;1016463;-65
2023/09/20 11:37:35;;;;;;;12.20;2.90;;;;;;;31.35;33.28;98819.28;67915;1276;1016645;-64
2023/09/20 11:40:37;;;;;;;10.50;2.40;;;;;;;31.36;33.70;98825.69;67898;1276;1020295;-65
2023/09/20 11:43:41;;;;;;;11.50;2.80;;;;;;;31.66;33.48;98821.52;67871;1276;1016370;-64
2023/09/20 11:46:47;;;;;;;10.00;2.80;;;;;;;32.00;33.18;98816.19;67911;1276;1016373;-65
2023/09/20 11:49:50;;;;;;;12.80;2.80;;;;;;;32.17;32.44;98807.91;67902;1276;1016228;-64
2023/09/20 11:52:53;;;;;;;11.60;2.40;;;;;;;31.97;31.65;98808.38;67902;1276;1016442;-64
2023/09/20 11:55:55;;;;;;;13.40;2.60;;;;;;;31.74;32.63;98805.25;67912;1276;1016273;-64
2023/09/20 11:58:58;;;;;;;8.10;2.30;;;;;;;31.76;33.33;98805.84;67878;1276;1016442;-64
2023/09/20 12:02:02;;;;;;;12.60;2.90;;;;;;;32.07;32.77;98797.27;67859;1276;1016506;-65
2023/09/20 12:05:04;;;;;;;9.80;2.70;;;;;;;32.22;32.81;98792.38;67869;1276;1016288;-65
2023/09/20 12:08:06;;;;;;;9.70;2.80;;;;;;;32.27;32.28;98786.91;67863;1276;1018535;-68
2023/09/20 12:11:09;;;;;;;11.20;2.10;;;;;;;32.02;30.68;98791.74;67934;1276;1016115;-65
2023/09/20 12:14:13;;;;;;;7.60;2.20;;;;;;;31.78;31.73;98792.45;67907;1276;1016907;-65
2023/09/20 12:17:16;;;;;;;16.50;3.00;;;;;;;32.05;32.30;98788.77;67868;1276;1015991;-67
2023/09/20 12:20:18;;;;;;;10.10;2.40;;;;;;;32.33;32.10;98785.38;67855;1276;1016419;-65
2023/09/20 12:23:20;;;;;;;7.10;2.30;;;;;;;32.20;31.57;98785.52;67873;1276;1016380;-67
2023/09/20 12:26:24;;;;;;;12.30;2.70;;;;;;;32.06;31.28;98787.70;67895;1276;1016381;-67
2023/09/20 12:29:27;;;;;;;9.80;2.40;;;;;;;31.88;31.83;98789.34;67893;1276;1016653;-67
2023/09/20 12:32:31;;;;;;;6.20;2.20;;;;;;;31.85;31.67;98784.59;67872;1276;1016589;-65
2023/09/20 12:35:33;;;;;;;8.60;2.20;;;;;;;31.85;32.06;98779.29;67892;1276;1016174;-67
2023/09/20 12:38:35;;;;;;;8.50;2.30;;;;;;;32.07;31.62;98775.59;67886;1276;1016475;-65
2023/09/20 12:41:38;;;;;;;12.90;2.50;;;;;;;32.19;32.38;98768.77;67888;1276;1016218;-67
2023/09/20 12:44:40;;;;;;;10.80;2.40;;;;;;;32.38;31.40;98767.30;67858;1276;1016903;-67
2023/09/20 12:47:44;;;;;;;7.40;1.90;;;;;;;32.07;30.53;98767.61;67856;1276;1016302;-65
2023/09/20 12:50:47;;;;;;;7.00;2.00;;;;;;;32.06;30.74;98769.54;67873;1276;1016458;-65
2023/09/20 12:53:49;;;;;;;9.90;2.20;;;;;;;32.10;30.90;98767.85;67888;1276;1017472;-65
2023/09/20 12:56:51;;;;;;;10.40;2.20;;;;;;;32.22;31.20;98764.11;67927;1254;1016522;-66
2023/09/20 12:59:56;;;;;;;8.20;2.00;;;;;;;32.68;31.38;98759.05;67875;1276;1016655;-64
2023/09/20 13:02:59;;;;;;;8.40;2.00;;;;;;;32.61;30.58;98753.80;67864;1276;1016634;-65
2023/09/20 13:06:02;;;;;;;8.30;2.10;;;;;;;32.48;29.68;98758.13;67869;1276;1017855;-65
2023/09/20 13:09:04;;;;;;;9.30;2.40;;;;;;;32.43;30.63;98754.88;67850;1276;1016438;-65
2023/09/20 13:12:08;;;;;;;9.30;2.60;;;;;;;32.53;30.76;98749.42;67861;1276;1016362;-65
2023/09/20 13:15:14;;;;;;;10.90;2.30;;;;;;;32.87;30.98;98743.48;67877;1276;1016503;-65
2023/09/20 13:18:16;;;;;;;9.00;2.10;;;;;;;33.20;30.81;98737.75;67868;1276;1016477;-65
2023/09/20 13:21:19;;;;;;;6.60;2.20;;;;;;;33.29;30.67;98740.34;67867;1276;1016509;-66
2023/09/20 13:24:21;;;;;;;5.90;2.20;;;;;;;33.36;30.40;98740.25;67883;1276;1016368;-66
2023/09/20 13:27:24;;;;;;;7.10;2.00;;;;;;;33.65;29.91;98742.63;67904;1276;1016709;-65
2023/09/20 13:30:26;;;;;;;8.50;2.40;;;;;;;33.36;29.12;98744.47;67867;1276;1016430;-65
2023/09/20 13:33:30;;;;;;;10.70;2.30;;;;;;;32.89;29.69;98743.96;67852;1254;1016433;-67
2023/09/20 13:36:33;;;;;;;6.40;2.00;;;;;;;32.68;29.88;98737.71;67881;1276;1016410;-65
2023/09/20 13:39:42;;;;;;;7.80;2.00;;;;;;;32.73;29.63;98735.87;67885;1276;1016563;-65
2023/09/20 13:42:45;;;;;;;8.50;2.00;;;;;;;32.82;29.43;98732.96;67844;1276;1016267;-67
2023/09/20 13:45:48;;;;;;;7.60;2.00;;;;;;;32.43;29.65;98728.21;67898;1276;1016506;-66
2023/09/20 13:48:51;;;;;;;8.10;2.30;;;;;;;32.47;30.17;98730.58;67850;1276;1016307;-67
2023/09/20 13:51:53;;;;;;;7.90;2.50;;;;;;;32.46;29.80;98732.73;67903;1276;1016089;-66
2023/09/20 13:54:56;;;;;;;6.70;2.20;;;;;;;32.30;29.43;98729.52;67891;1276;1016630;-67
2023/09/20 13:57:58;;;;;;;8.40;2.00;;;;;;;32.26;29.88;98723.62;67877;1276;1016188;-65
2023/09/20 14:01:05;;;;;;;7.80;2.20;;;;;;;32.58;30.22;98718.70;67854;1276;1016863;-67
2023/09/20 14:04:09;;;;;;;6.30;2.30;;;;;;;32.55;29.75;98719.13;67859;1276;1016378;-66
2023/09/20 14:07:12;;;;;;;6.20;1.80;;;;;;;32.68;29.88;98714.79;67886;1276;1016475;-67
2023/09/20 14:10:14;;;;;;;8.00;2.10;;;;;;;32.60;29.64;98715.35;67867;1276;1016898;-66
2023/09/20 14:13:16;;;;;;;8.20;2.00;;;;;;;32.49;29.72;98714.29;67857;1276;1016418;-67
2023/09/20 14:16:19;;;;;;;4.60;1.80;;;;;;;32.42;29.77;98716.80;67843;1276;1016105;-66
2023/09/20 14:19:22;;;;;;;5.50;1.90;;;;;;;32.27;29.85;98717.04;67911;1259;1016147;-67
2023/09/20 14:22:25;;;;;;;7.90;1.90;;;;;;;32.31;29.93;98717.05;67873;1276;1016147;-66
2023/09/20 14:25:30;;;;;;;8.90;2.30;;;;;;;32.11;30.71;98711.77;67910;1276;1017287;-65
2023/09/20 14:28:32;;;;;;;11.00;2.50;;;;;;;32.15;30.64;98709.83;67897;1276;1016246;-66
2023/09/20 14:31:35;;;;;;;8.50;2.10;;;;;;;32.24;30.48;98705.45;67843;1276;1016432;-66
2023/09/20 14:34:37;;;;;;;5.80;2.10;;;;;;;32.10;30.82;98704.68;67881;1276;1016737;-67